sensor_id;sensor_type;location;lat;lon;timestamp;temperature;humidity
17891;DHT22;9071;48.220;14.480;2023-11-19T00:03:50;3.50;99.90
17891;DHT22;9071;48.220;14.480;2023-11-19T00:08:54;3.50;99.90
17891;DHT22;9071;48.220;14.480;2023-11-19T00:13:57;3.50;99.90
17891;DHT22;9071;48.220;14.480;2023-11-19T00:18:59;3.50;99.90
17891;DHT22;9071;48.220;14.480;2023-11-19T00:24:01;3.40;99.90
17891;DHT22;9071;48.220;14.480;2023-11-19T00:29:06;3.30;99.90
17891;DHT22;9071;48.220;14.480;2023-11-19T00:34:08;3.40;99.90
17891;DHT22;9071;48.220;14.480;2023-11-19T00:39:11;3.40;99.90
17891;DHT22;9071;48.220;14.480;2023-11-19T00:44:17;3.30;99.90
17891;DHT22;9071;48.220;14.480;2023-11-19T00:49:20;3.30;99.90
17891;DHT22;9071;48.220;14.480;2023-11-19T00:54:22;3.30;99.90
17891;DHT22;9071;48.220;14.480;2023-11-19T00:59:27;3.30;99.90
17891;DHT22;9071;48.220;14.480;2023-11-19T01:04:33;3.30;99.90
17891;DHT22;9071;48.220;14.480;2023-11-19T01:09:35;3.30;99.90
17891;DHT22;9071;48.220;14.480;2023-11-19T01:14:39;3.30;99.90
17891;DHT22;9071;48.220;14.480;2023-11-19T01:19:41;3.20;99.90
17891;DHT22;9071;48.220;14.480;2023-11-19T01:24:43;3.10;99.90
17891;DHT22;9071;48.220;14.480;2023-11-19T01:29:46;3.00;99.90
17891;DHT22;9071;48.220;14.480;2023-11-19T01:34:48;3.00;99.90
17891;DHT22;9071;48.220;14.480;2023-11-19T01:39:50;3.00;99.90
17891;DHT22;9071;48.220;14.480;2023-11-19T01:44:58;3.00;99.90
17891;DHT22;9071;48.220;14.480;2023-11-19T01:50:01;3.00;99.90
17891;DHT22;9071;48.220;14.480;2023-11-19T01:55:08;3.00;99.90
17891;DHT22;9071;48.220;14.480;2023-11-19T02:00:13;3.10;99.90
17891;DHT22;9071;48.220;14.480;2023-11-19T02:05:17;3.00;99.90
17891;DHT22;9071;48.220;14.480;2023-11-19T02:10:19;3.10;99.90
17891;DHT22;9071;48.220;14.480;2023-11-19T02:15:22;3.10;99.90
17891;DHT22;9071;48.220;14.480;2023-11-19T02:20:25;3.10;99.90
17891;DHT22;9071;48.220;14.480;2023-11-19T02:25:30;3.10;99.90
17891;DHT22;9071;48.220;14.480;2023-11-19T02:30:35;3.00;99.90
17891;DHT22;9071;48.220;14.480;2023-11-19T02:35:39;3.00;99.90
17891;DHT22;9071;48.220;14.480;2023-11-19T02:40:41;3.00;99.90
17891;DHT22;9071;48.220;14.480;2023-11-19T02:45:45;3.00;99.90
17891;DHT22;9071;48.220;14.480;2023-11-19T02:50:47;3.10;99.90
17891;DHT22;9071;48.220;14.480;2023-11-19T02:55:49;3.00;99.90
17891;DHT22;9071;48.220;14.480;2023-11-19T03:00:53;3.10;99.90
17891;DHT22;9071;48.220;14.480;2023-11-19T03:05:58;3.10;99.90
17891;DHT22;9071;48.220;14.480;2023-11-19T03:11:00;3.20;99.90
17891;DHT22;9071;48.220;14.480;2023-11-19T03:16:04;3.10;99.90
17891;DHT22;9071;48.220;14.480;2023-11-19T03:21:06;3.10;99.90
17891;DHT22;9071;48.220;14.480;2023-11-19T03:26:10;3.10;99.90
17891;DHT22;9071;48.220;14.480;2023-11-19T03:31:14;3.10;99.90
17891;DHT22;9071;48.220;14.480;2023-11-19T03:36:16;3.10;99.90
17891;DHT22;9071;48.220;14.480;2023-11-19T03:41:18;3.20;99.90
17891;DHT22;9071;48.220;14.480;2023-11-19T03:46:23;3.20;99.90
17891;DHT22;9071;48.220;14.480;2023-11-19T03:51:25;3.20;99.90
17891;DHT22;9071;48.220;14.480;2023-11-19T03:56:27;3.30;99.90
17891;DHT22;9071;48.220;14.480;2023-11-19T04:01:30;3.30;99.90
17891;DHT22;9071;48.220;14.480;2023-11-19T04:06:32;3.30;99.90
17891;DHT22;9071;48.220;14.480;2023-11-19T04:11:36;3.20;99.90
17891;DHT22;9071;48.220;14.480;2023-11-19T04:16:39;3.20;99.90
17891;DHT22;9071;48.220;14.480;2023-11-19T04:21:41;3.20;99.90
17891;DHT22;9071;48.220;14.480;2023-11-19T04:26:44;3.20;99.90
17891;DHT22;9071;48.220;14.480;2023-11-19T04:31:48;3.20;99.90
17891;DHT22;9071;48.220;14.480;2023-11-19T04:36:50;3.10;99.90
17891;DHT22;9071;48.220;14.480;2023-11-19T04:41:52;3.10;99.90
17891;DHT22;9071;48.220;14.480;2023-11-19T04:46:56;3.10;99.90
17891;DHT22;9071;48.220;14.480;2023-11-19T04:51:59;3.10;99.90
17891;DHT22;9071;48.220;14.480;2023-11-19T04:57:01;3.10;99.90
17891;DHT22;9071;48.220;14.480;2023-11-19T05:02:04;3.10;99.90
17891;DHT22;9071;48.220;14.480;2023-11-19T05:07:07;3.20;99.90
17891;DHT22;9071;48.220;14.480;2023-11-19T05:12:09;3.20;99.90
17891;DHT22;9071;48.220;14.480;2023-11-19T05:17:14;3.20;99.90
17891;DHT22;9071;48.220;14.480;2023-11-19T05:22:16;3.20;99.90
17891;DHT22;9071;48.220;14.480;2023-11-19T05:27:18;3.10;99.90
17891;DHT22;9071;48.220;14.480;2023-11-19T05:32:25;3.20;99.90
17891;DHT22;9071;48.220;14.480;2023-11-19T05:37:27;3.10;99.90
17891;DHT22;9071;48.220;14.480;2023-11-19T05:42:29;3.20;99.90
17891;DHT22;9071;48.220;14.480;2023-11-19T05:47:33;3.20;99.90
17891;DHT22;9071;48.220;14.480;2023-11-19T05:52:35;3.30;99.90
17891;DHT22;9071;48.220;14.480;2023-11-19T05:57:37;3.40;99.90
17891;DHT22;9071;48.220;14.480;2023-11-19T06:02:41;3.40;99.90
17891;DHT22;9071;48.220;14.480;2023-11-19T06:07:43;3.40;99.90
17891;DHT22;9071;48.220;14.480;2023-11-19T06:12:47;3.50;99.90
17891;DHT22;9071;48.220;14.480;2023-11-19T06:17:50;3.50;99.90
17891;DHT22;9071;48.220;14.480;2023-11-19T06:22:52;3.50;99.90
17891;DHT22;9071;48.220;14.480;2023-11-19T06:27:54;3.50;99.90
17891;DHT22;9071;48.220;14.480;2023-11-19T06:32:59;3.60;99.90
17891;DHT22;9071;48.220;14.480;2023-11-19T06:38:01;3.50;99.90
17891;DHT22;9071;48.220;14.480;2023-11-19T06:43:04;3.50;99.90
17891;DHT22;9071;48.220;14.480;2023-11-19T06:48:10;3.50;99.90
17891;DHT22;9071;48.220;14.480;2023-11-19T06:53:12;3.50;99.90
17891;DHT22;9071;48.220;14.480;2023-11-19T06:58:14;3.60;99.90
17891;DHT22;9071;48.220;14.480;2023-11-19T07:03:20;3.60;99.90
17891;DHT22;9071;48.220;14.480;2023-11-19T07:08:22;3.60;99.90
17891;DHT22;9071;48.220;14.480;2023-11-19T07:13:24;3.70;99.90
17891;DHT22;9071;48.220;14.480;2023-11-19T07:18:30;3.80;99.90
17891;DHT22;9071;48.220;14.480;2023-11-19T07:23:32;3.80;99.90
17891;DHT22;9071;48.220;14.480;2023-11-19T07:28:35;3.80;99.90
17891;DHT22;9071;48.220;14.480;2023-11-19T07:33:39;3.70;99.90
17891;DHT22;9071;48.220;14.480;2023-11-19T07:38:43;3.70;99.90
17891;DHT22;9071;48.220;14.480;2023-11-19T07:43:45;3.70;99.90
17891;DHT22;9071;48.220;14.480;2023-11-19T07:48:49;3.80;99.90
17891;DHT22;9071;48.220;14.480;2023-11-19T07:53:51;3.70;99.90
17891;DHT22;9071;48.220;14.480;2023-11-19T07:58:53;3.80;99.90
17891;DHT22;9071;48.220;14.480;2023-11-19T08:03:57;3.80;99.90
17891;DHT22;9071;48.220;14.480;2023-11-19T08:08:59;3.90;99.90
17891;DHT22;9071;48.220;14.480;2023-11-19T08:14:02;4.00;99.90
17891;DHT22;9071;48.220;14.480;2023-11-19T08:19:05;4.10;99.90
17891;DHT22;9071;48.220;14.480;2023-11-19T08:24:07;4.30;99.90
17891;DHT22;9071;48.220;14.480;2023-11-19T08:29:09;4.40;99.90
17891;DHT22;9071;48.220;14.480;2023-11-19T08:34:13;4.40;99.90
17891;DHT22;9071;48.220;14.480;2023-11-19T08:39:16;4.50;99.90
17891;DHT22;9071;48.220;14.480;2023-11-19T08:44:18;4.50;99.90
17891;DHT22;9071;48.220;14.480;2023-11-19T08:49:22;4.50;99.90
17891;DHT22;9071;48.220;14.480;2023-11-19T08:54:24;4.60;99.90
17891;DHT22;9071;48.220;14.480;2023-11-19T08:59:26;4.70;99.90
17891;DHT22;9071;48.220;14.480;2023-11-19T09:04:30;4.90;99.90
17891;DHT22;9071;48.220;14.480;2023-11-19T09:09:32;4.90;99.90
17891;DHT22;9071;48.220;14.480;2023-11-19T09:14:36;5.00;99.90
17891;DHT22;9071;48.220;14.480;2023-11-19T09:19:39;5.10;99.90
17891;DHT22;9071;48.220;14.480;2023-11-19T09:24:41;5.20;99.90
17891;DHT22;9071;48.220;14.480;2023-11-19T09:29:45;5.20;99.90
17891;DHT22;9071;48.220;14.480;2023-11-19T09:34:50;5.20;99.90
17891;DHT22;9071;48.220;14.480;2023-11-19T09:39:52;5.20;99.90
17891;DHT22;9071;48.220;14.480;2023-11-19T09:44:56;5.10;99.90
17891;DHT22;9071;48.220;14.480;2023-11-19T09:50:01;5.00;99.90
17891;DHT22;9071;48.220;14.480;2023-11-19T09:55:03;5.00;99.90
17891;DHT22;9071;48.220;14.480;2023-11-19T10:00:06;5.10;99.90
17891;DHT22;9071;48.220;14.480;2023-11-19T10:05:13;5.30;99.90
17891;DHT22;9071;48.220;14.480;2023-11-19T10:10:15;5.20;99.90
17891;DHT22;9071;48.220;14.480;2023-11-19T10:15:21;5.00;99.90
17891;DHT22;9071;48.220;14.480;2023-11-19T10:20:26;5.00;99.90
17891;DHT22;9071;48.220;14.480;2023-11-19T10:25:28;5.20;99.90
17891;DHT22;9071;48.220;14.480;2023-11-19T10:30:31;5.30;99.90
17891;DHT22;9071;48.220;14.480;2023-11-19T10:35:50;5.40;99.90
17891;DHT22;9071;48.220;14.480;2023-11-19T10:40:53;5.40;99.90
17891;DHT22;9071;48.220;14.480;2023-11-19T10:46:09;5.40;99.90
17891;DHT22;9071;48.220;14.480;2023-11-19T10:51:13;5.50;99.90
17891;DHT22;9071;48.220;14.480;2023-11-19T10:56:24;5.50;99.90
17891;DHT22;9071;48.220;14.480;2023-11-19T11:01:33;5.50;99.90
17891;DHT22;9071;48.220;14.480;2023-11-19T11:06:38;5.60;99.90
17891;DHT22;9071;48.220;14.480;2023-11-19T11:11:40;5.70;99.90
17891;DHT22;9071;48.220;14.480;2023-11-19T11:16:44;5.80;99.90
17891;DHT22;9071;48.220;14.480;2023-11-19T11:21:53;5.70;99.90
17891;DHT22;9071;48.220;14.480;2023-11-19T11:27:41;5.70;99.90
17891;DHT22;9071;48.220;14.480;2023-11-19T11:32:54;5.80;99.90
17891;DHT22;9071;48.220;14.480;2023-11-19T11:38:06;5.80;99.90
17891;DHT22;9071;48.220;14.480;2023-11-19T11:48:45;6.10;99.90
17891;DHT22;9071;48.220;14.480;2023-11-19T11:53:51;6.30;99.90
17891;DHT22;9071;48.220;14.480;2023-11-19T11:58:55;6.40;99.90
17891;DHT22;9071;48.220;14.480;2023-11-19T12:03:57;6.40;99.90
17891;DHT22;9071;48.220;14.480;2023-11-19T12:09:02;6.40;99.90
17891;DHT22;9071;48.220;14.480;2023-11-19T12:14:04;6.40;99.90
17891;DHT22;9071;48.220;14.480;2023-11-19T12:19:08;6.50;99.90
17891;DHT22;9071;48.220;14.480;2023-11-19T12:24:12;6.60;99.90
17891;DHT22;9071;48.220;14.480;2023-11-19T12:29:15;6.60;99.90
17891;DHT22;9071;48.220;14.480;2023-11-19T12:34:17;6.60;99.90
17891;DHT22;9071;48.220;14.480;2023-11-19T12:39:20;6.70;99.90
17891;DHT22;9071;48.220;14.480;2023-11-19T12:44:22;6.80;99.90
17891;DHT22;9071;48.220;14.480;2023-11-19T12:49:25;7.00;99.90
17891;DHT22;9071;48.220;14.480;2023-11-19T12:54:35;7.40;99.90
17891;DHT22;9071;48.220;14.480;2023-11-19T12:59:37;7.40;99.90
17891;DHT22;9071;48.220;14.480;2023-11-19T13:04:39;7.30;99.90
17891;DHT22;9071;48.220;14.480;2023-11-19T13:09:43;7.40;99.90
17891;DHT22;9071;48.220;14.480;2023-11-19T13:14:45;7.60;99.90
17891;DHT22;9071;48.220;14.480;2023-11-19T13:19:48;7.60;99.90
17891;DHT22;9071;48.220;14.480;2023-11-19T13:24:52;7.50;99.90
17891;DHT22;9071;48.220;14.480;2023-11-19T13:29:55;7.40;99.90
17891;DHT22;9071;48.220;14.480;2023-11-19T13:34:57;7.60;99.90
17891;DHT22;9071;48.220;14.480;2023-11-19T13:40:00;7.70;99.90
17891;DHT22;9071;48.220;14.480;2023-11-19T13:45:04;7.50;99.90
17891;DHT22;9071;48.220;14.480;2023-11-19T13:50:09;7.60;99.90
17891;DHT22;9071;48.220;14.480;2023-11-19T13:55:14;7.50;99.90
17891;DHT22;9071;48.220;14.480;2023-11-19T14:00:17;7.30;99.90
17891;DHT22;9071;48.220;14.480;2023-11-19T14:05:19;7.30;99.90
17891;DHT22;9071;48.220;14.480;2023-11-19T14:10:23;7.10;99.90
17891;DHT22;9071;48.220;14.480;2023-11-19T14:15:25;7.00;99.90
17891;DHT22;9071;48.220;14.480;2023-11-19T14:20:27;7.00;99.90
17891;DHT22;9071;48.220;14.480;2023-11-19T14:25:31;7.00;99.90
17891;DHT22;9071;48.220;14.480;2023-11-19T14:30:33;6.70;99.90
17891;DHT22;9071;48.220;14.480;2023-11-19T14:35:35;6.70;99.90
17891;DHT22;9071;48.220;14.480;2023-11-19T14:40:39;6.60;99.90
17891;DHT22;9071;48.220;14.480;2023-11-19T14:45:43;6.30;99.90
17891;DHT22;9071;48.220;14.480;2023-11-19T14:50:46;6.10;99.90
17891;DHT22;9071;48.220;14.480;2023-11-19T14:55:50;5.90;99.90
17891;DHT22;9071;48.220;14.480;2023-11-19T15:00:52;5.80;99.90
17891;DHT22;9071;48.220;14.480;2023-11-19T15:05:54;5.60;99.90
17891;DHT22;9071;48.220;14.480;2023-11-19T15:10:57;5.40;99.90
17891;DHT22;9071;48.220;14.480;2023-11-19T15:16:00;5.30;99.90
17891;DHT22;9071;48.220;14.480;2023-11-19T15:21:02;5.20;99.90
17891;DHT22;9071;48.220;14.480;2023-11-19T15:26:06;5.10;99.90
17891;DHT22;9071;48.220;14.480;2023-11-19T15:31:10;5.10;99.90
17891;DHT22;9071;48.220;14.480;2023-11-19T15:36:13;5.10;99.90
17891;DHT22;9071;48.220;14.480;2023-11-19T15:41:17;5.40;99.90
17891;DHT22;9071;48.220;14.480;2023-11-19T15:46:19;5.50;99.90
17891;DHT22;9071;48.220;14.480;2023-11-19T15:51:21;5.60;99.90
17891;DHT22;9071;48.220;14.480;2023-11-19T15:56:24;5.60;99.90
17891;DHT22;9071;48.220;14.480;2023-11-19T16:01:27;5.60;99.90
17891;DHT22;9071;48.220;14.480;2023-11-19T16:06:31;5.60;99.90
17891;DHT22;9071;48.220;14.480;2023-11-19T16:11:34;5.60;99.90
17891;DHT22;9071;48.220;14.480;2023-11-19T16:16:36;5.60;99.90
17891;DHT22;9071;48.220;14.480;2023-11-19T16:21:39;5.60;99.90
17891;DHT22;9071;48.220;14.480;2023-11-19T16:26:42;5.60;99.90
17891;DHT22;9071;48.220;14.480;2023-11-19T16:31:45;5.60;99.90
17891;DHT22;9071;48.220;14.480;2023-11-19T16:36:49;5.60;99.90
17891;DHT22;9071;48.220;14.480;2023-11-19T16:41:52;5.60;99.90
17891;DHT22;9071;48.220;14.480;2023-11-19T16:46:54;5.50;99.90
17891;DHT22;9071;48.220;14.480;2023-11-19T16:51:56;5.50;99.90
17891;DHT22;9071;48.220;14.480;2023-11-19T16:57:00;5.40;99.90
17891;DHT22;9071;48.220;14.480;2023-11-19T17:02:02;5.50;99.90
17891;DHT22;9071;48.220;14.480;2023-11-19T17:07:04;5.70;99.90
17891;DHT22;9071;48.220;14.480;2023-11-19T17:12:08;5.70;99.90
17891;DHT22;9071;48.220;14.480;2023-11-19T17:17:11;5.60;99.90
17891;DHT22;9071;48.220;14.480;2023-11-19T17:22:13;5.40;99.90
17891;DHT22;9071;48.220;14.480;2023-11-19T17:27:16;5.40;99.90
17891;DHT22;9071;48.220;14.480;2023-11-19T17:32:18;5.50;99.90
17891;DHT22;9071;48.220;14.480;2023-11-19T17:37:21;5.60;99.90
17891;DHT22;9071;48.220;14.480;2023-11-19T17:42:24;5.60;99.90
17891;DHT22;9071;48.220;14.480;2023-11-19T17:47:26;5.60;99.90
17891;DHT22;9071;48.220;14.480;2023-11-19T17:52:29;5.60;99.90
17891;DHT22;9071;48.220;14.480;2023-11-19T17:57:34;5.60;99.90
17891;DHT22;9071;48.220;14.480;2023-11-19T18:02:36;5.50;99.90
17891;DHT22;9071;48.220;14.480;2023-11-19T18:07:38;5.50;99.90
17891;DHT22;9071;48.220;14.480;2023-11-19T18:12:43;5.50;99.90
17891;DHT22;9071;48.220;14.480;2023-11-19T18:17:46;5.50;99.90
17891;DHT22;9071;48.220;14.480;2023-11-19T18:22:48;5.50;99.90
17891;DHT22;9071;48.220;14.480;2023-11-19T18:27:51;5.50;99.90
17891;DHT22;9071;48.220;14.480;2023-11-19T18:32:54;5.50;99.90
17891;DHT22;9071;48.220;14.480;2023-11-19T18:37:56;5.40;99.90
17891;DHT22;9071;48.220;14.480;2023-11-19T18:42:59;5.50;99.90
17891;DHT22;9071;48.220;14.480;2023-11-19T18:48:01;5.40;99.90
17891;DHT22;9071;48.220;14.480;2023-11-19T18:53:04;5.50;99.90
17891;DHT22;9071;48.220;14.480;2023-11-19T18:58:07;5.60;99.90
17891;DHT22;9071;48.220;14.480;2023-11-19T19:03:09;5.80;99.90
17891;DHT22;9071;48.220;14.480;2023-11-19T19:08:14;5.90;99.90
17891;DHT22;9071;48.220;14.480;2023-11-19T19:13:18;5.90;99.90
17891;DHT22;9071;48.220;14.480;2023-11-19T19:18:21;5.90;99.90
17891;DHT22;9071;48.220;14.480;2023-11-19T19:23:24;5.90;99.90
17891;DHT22;9071;48.220;14.480;2023-11-19T19:28:27;6.00;99.90
17891;DHT22;9071;48.220;14.480;2023-11-19T19:33:31;6.00;99.90
17891;DHT22;9071;48.220;14.480;2023-11-19T19:38:34;6.00;99.90
17891;DHT22;9071;48.220;14.480;2023-11-19T19:43:37;6.10;99.90
17891;DHT22;9071;48.220;14.480;2023-11-19T19:48:40;6.10;99.90
17891;DHT22;9071;48.220;14.480;2023-11-19T19:53:42;6.20;99.90
17891;DHT22;9071;48.220;14.480;2023-11-19T19:58:46;6.30;99.90
17891;DHT22;9071;48.220;14.480;2023-11-19T20:03:48;6.30;99.90
17891;DHT22;9071;48.220;14.480;2023-11-19T20:08:51;6.20;99.90
17891;DHT22;9071;48.220;14.480;2023-11-19T20:13:54;6.00;99.90
17891;DHT22;9071;48.220;14.480;2023-11-19T20:18:56;5.90;99.90
17891;DHT22;9071;48.220;14.480;2023-11-19T20:23:58;5.80;99.90
17891;DHT22;9071;48.220;14.480;2023-11-19T20:29:05;5.70;99.90
17891;DHT22;9071;48.220;14.480;2023-11-19T20:34:06;5.60;99.90
17891;DHT22;9071;48.220;14.480;2023-11-19T20:39:09;5.60;99.90
17891;DHT22;9071;48.220;14.480;2023-11-19T20:44:14;5.60;99.90
17891;DHT22;9071;48.220;14.480;2023-11-19T20:49:16;5.50;99.90
17891;DHT22;9071;48.220;14.480;2023-11-19T20:54:20;5.30;99.90
17891;DHT22;9071;48.220;14.480;2023-11-19T20:59:23;5.20;99.90
17891;DHT22;9071;48.220;14.480;2023-11-19T21:04:25;5.20;99.90
17891;DHT22;9071;48.220;14.480;2023-11-19T21:09:27;5.20;99.90
17891;DHT22;9071;48.220;14.480;2023-11-19T21:14:30;5.30;99.90
17891;DHT22;9071;48.220;14.480;2023-11-19T21:19:34;5.40;99.90
17891;DHT22;9071;48.220;14.480;2023-11-19T21:24:36;5.40;99.90
17891;DHT22;9071;48.220;14.480;2023-11-19T21:29:39;5.50;99.90
17891;DHT22;9071;48.220;14.480;2023-11-19T21:34:41;5.60;99.90
17891;DHT22;9071;48.220;14.480;2023-11-19T21:39:43;5.60;99.90
17891;DHT22;9071;48.220;14.480;2023-11-19T21:44:47;5.50;99.90
17891;DHT22;9071;48.220;14.480;2023-11-19T21:49:50;5.60;99.90
17891;DHT22;9071;48.220;14.480;2023-11-19T21:54:52;5.50;99.90
17891;DHT22;9071;48.220;14.480;2023-11-19T21:59:55;5.60;99.90
17891;DHT22;9071;48.220;14.480;2023-11-19T22:04:57;5.70;99.90
17891;DHT22;9071;48.220;14.480;2023-11-19T22:09:59;5.80;99.90
17891;DHT22;9071;48.220;14.480;2023-11-19T22:15:06;6.00;99.90
17891;DHT22;9071;48.220;14.480;2023-11-19T22:20:08;6.20;99.90
17891;DHT22;9071;48.220;14.480;2023-11-19T22:25:11;6.30;99.90
17891;DHT22;9071;48.220;14.480;2023-11-19T22:30:14;6.40;99.90
17891;DHT22;9071;48.220;14.480;2023-11-19T22:35:16;6.70;99.90
17891;DHT22;9071;48.220;14.480;2023-11-19T22:40:18;6.90;99.90
17891;DHT22;9071;48.220;14.480;2023-11-19T22:45:22;7.20;99.90
17891;DHT22;9071;48.220;14.480;2023-11-19T22:50:24;7.30;99.90
17891;DHT22;9071;48.220;14.480;2023-11-19T22:55:26;7.40;99.90
17891;DHT22;9071;48.220;14.480;2023-11-19T23:00:30;7.40;99.90
17891;DHT22;9071;48.220;14.480;2023-11-19T23:05:32;7.40;99.90
17891;DHT22;9071;48.220;14.480;2023-11-19T23:10:36;7.70;99.90
17891;DHT22;9071;48.220;14.480;2023-11-19T23:15:39;7.90;99.90
17891;DHT22;9071;48.220;14.480;2023-11-19T23:20:41;8.10;99.90
17891;DHT22;9071;48.220;14.480;2023-11-19T23:25:44;8.30;99.90
17891;DHT22;9071;48.220;14.480;2023-11-19T23:30:47;8.50;99.90
17891;DHT22;9071;48.220;14.480;2023-11-19T23:35:49;8.80;99.90
17891;DHT22;9071;48.220;14.480;2023-11-19T23:40:51;8.80;99.90
17891;DHT22;9071;48.220;14.480;2023-11-19T23:45:56;8.90;99.90
17891;DHT22;9071;48.220;14.480;2023-11-19T23:50:57;8.90;99.90
17891;DHT22;9071;48.220;14.480;2023-11-19T23:55:59;8.90;99.90
